Terminal Aerodrome Forecast
Issued by NWS Jackson, MS

Home | Current Version | Previous Version | Text Only | Print | Product List | Glossary On
Versions: 1 2 3 4 5 6 7 8 9 10 11 12 13 14 15
527
FTUS44 KJAN 221133
TAFMEI
TAF
KMEI 221133Z 2212/2312 34004KT 4SM BR OVC002
     FM221500 35005KT P6SM OVC007
     FM221800 36007KT P6SM OVC015
     FM222100 01006KT P6SM SCT030
     FM230600 VRB04KT 1SM BR SCT003=

USA.gov is the U.S. government's official web portal to all federal, state and local government web resources and services.